Time;durP1;ratioP1;P1;durP2;ratioP2;P2;SDS_P1;SDS_P2;PMS_P1;PMS_P2;Temp;Humidity;BMP_temperature;BMP_pressure;BME280_temperature;BME280_humidity;BME280_pressure;Samples;Min_cycle;Max_cycle;Signal;HPM_P1;HPM_P2
2023/11/06 05:43:35;;;;;;;4.20;1.60;;;;;;;11.14;100.00;98652.66;111250;1252;25328;-56
2023/11/06 05:46:05;;;;;;;6.70;1.50;;;;;;;11.13;100.00;98663.16;112319;1252;22545;-55
2023/11/06 05:48:43;;;;;;;3.90;1.70;;;;;;;11.14;100.00;98673.98;111932;1252;22409;-54
2023/11/06 05:51:12;;;;;;;2.00;1.40;;;;;;;11.14;100.00;98673.95;111512;1246;22416;-55
2023/11/06 05:53:38;;;;;;;4.80;1.60;;;;;;;11.17;100.00;98668.27;112603;1241;22402;-54
2023/11/06 05:56:05;;;;;;;5.30;1.80;;;;;;;11.20;100.00;98677.64;112653;1242;22673;-54
2023/11/06 05:58:33;;;;;;;2.50;1.50;;;;;;;11.22;100.00;98684.21;112649;1244;22888;-53
2023/11/06 06:01:01;;;;;;;3.30;1.40;;;;;;;11.24;100.00;98693.02;112676;1240;22403;-55
2023/11/06 06:03:28;;;;;;;5.50;1.40;;;;;;;11.26;100.00;98697.55;112610;1243;22363;-55
2023/11/06 06:05:55;;;;;;;2.20;1.50;;;;;;;11.27;100.00;98710.76;112174;1245;23398;-54
2023/11/06 06:08:22;;;;;;;3.30;1.50;;;;;;;11.29;100.00;98719.09;111442;1249;22980;-53
2023/11/06 06:11:00;;;;;;;4.50;1.50;;;;;;;11.32;100.00;98722.50;112656;1242;22387;-54
2023/11/06 06:13:27;;;;;;;5.30;1.50;;;;;;;11.40;100.00;98729.08;112474;1242;22369;-55
2023/11/06 06:15:54;;;;;;;6.10;1.50;;;;;;;11.47;100.00;98730.29;112457;1241;22486;-54
2023/11/06 06:18:21;;;;;;;1.30;1.20;;;;;;;11.56;100.00;98727.41;112482;1249;22385;-53
2023/11/06 06:20:48;;;;;;;6.10;1.80;;;;;;;11.65;100.00;98726.96;112485;1250;23124;-53
2023/11/06 06:23:14;;;;;;;4.00;1.30;;;;;;;11.74;100.00;98731.23;112466;1239;22757;-54
2023/11/06 06:25:43;;;;;;;4.40;1.80;;;;;;;11.82;100.00;98727.00;112420;1241;22252;-54
2023/11/06 06:28:10;;;;;;;2.30;1.70;;;;;;;11.90;100.00;98730.27;112387;1249;22369;-54
2023/11/06 06:30:36;;;;;;;3.70;1.70;;;;;;;11.96;100.00;98729.56;112396;1242;23113;-53
2023/11/06 06:33:03;;;;;;;2.40;1.80;;;;;;;12.04;100.00;98733.34;111335;1252;22511;-56
2023/11/06 06:35:33;;;;;;;2.00;1.20;;;;;;;12.12;100.00;98740.45;112140;1252;22498;-54
2023/11/06 06:38:03;;;;;;;2.60;1.40;;;;;;;12.20;100.00;98737.20;112214;1252;22984;-53
2023/11/06 06:40:31;;;;;;;2.90;1.50;;;;;;;12.28;100.00;98739.92;112451;1249;22341;-53
2023/11/06 06:43:03;;;;;;;2.90;1.40;;;;;;;12.37;100.00;98742.61;112430;1252;22762;-55
2023/11/06 06:45:42;;;;;;;2.90;1.60;;;;;;;12.44;100.00;98742.94;111722;1242;22323;-54
2023/11/06 06:48:15;;;;;;;5.70;2.10;;;;;;;12.51;100.00;98747.09;112368;1252;22392;-55
2023/11/06 06:51:00;;;;;;;2.90;1.50;;;;;;;12.58;100.00;98744.73;112541;1237;23169;-56
2023/11/06 06:53:36;;;;;;;3.20;1.50;;;;;;;12.64;100.00;98735.11;112151;1242;22394;-53
2023/11/06 06:59:35;;;;;;;3.50;1.60;;;;;;;12.74;100.00;98741.40;112079;1252;22556;-55
2023/11/06 07:02:26;;;;;;;3.40;1.40;;;;;;;12.80;100.00;98752.42;112179;1244;22483;-55
2023/11/06 07:05:09;;;;;;;3.60;1.80;;;;;;;12.86;100.00;98756.77;111981;1252;22540;-55
2023/11/06 07:08:11;;;;;;;4.50;1.90;;;;;;;12.91;100.00;98758.67;112043;1252;22942;-54
2023/11/06 07:10:49;;;;;;;2.40;1.10;;;;;;;12.94;100.00;98759.29;112211;1242;22323;-55
2023/11/06 07:13:22;;;;;;;3.50;1.60;;;;;;;12.98;100.00;98767.02;112418;1242;22924;-56
2023/11/06 07:15:49;;;;;;;3.80;1.30;;;;;;;13.04;100.00;98773.48;112502;1241;22513;-55
2023/11/06 07:18:18;;;;;;;5.20;2.00;;;;;;;13.11;100.00;98783.58;112520;1242;22356;-55
2023/11/06 07:20:51;;;;;;;1.60;1.30;;;;;;;13.18;100.00;98789.27;112477;1242;22387;-55
2023/11/06 07:23:19;;;;;;;2.50;1.40;;;;;;;13.24;100.00;98789.60;112527;1242;22260;-55
2023/11/06 07:25:55;;;;;;;2.80;1.50;;;;;;;13.29;99.95;98787.54;112058;1241;22511;-54
2023/11/06 07:28:27;;;;;;;3.40;1.30;;;;;;;13.34;100.00;98794.88;112403;1247;22370;-55
2023/11/06 07:30:54;;;;;;;5.70;1.60;;;;;;;13.39;100.00;98799.24;112423;1245;22486;-56
2023/11/06 07:33:20;;;;;;;2.50;1.20;;;;;;;13.46;100.00;98801.27;112472;1248;22236;-54
2023/11/06 07:35:47;;;;;;;3.80;1.70;;;;;;;13.54;99.97;98804.49;112537;1241;22325;-54
2023/11/06 07:38:17;;;;;;;4.90;1.50;;;;;;;13.62;99.08;98805.08;111071;1250;22496;-54
2023/11/06 07:41:02;;;;;;;3.00;1.00;;;;;;;13.70;99.26;98805.33;111982;1252;24166;-53
2023/11/06 07:43:31;;;;;;;1.60;1.20;;;;;;;13.78;97.03;98811.00;111244;1252;23156;-55
2023/11/06 07:45:58;;;;;;;3.70;1.70;;;;;;;13.84;95.63;98812.35;112191;1252;23345;-55
2023/11/06 07:49:17;;;;;;;2.10;1.30;;;;;;;13.90;94.35;98819.84;112313;1251;23166;-56
2023/11/06 07:52:19;;;;;;;3.20;1.40;;;;;;;13.98;92.22;98824.46;111317;1252;23403;-55
2023/11/06 07:54:50;;;;;;;4.30;1.10;;;;;;;14.05;90.73;98829.09;111707;1252;22419;-54
2023/11/06 07:57:18;;;;;;;4.20;1.30;;;;;;;14.10;89.09;98831.55;111278;1246;22523;-55
2023/11/06 07:59:47;;;;;;;2.40;1.50;;;;;;;14.14;88.78;98838.93;111739;1245;23859;-55
2023/11/06 08:02:25;;;;;;;2.80;1.10;;;;;;;14.17;87.16;98842.34;111850;1252;22457;-56
2023/11/06 08:04:53;;;;;;;3.40;1.40;;;;;;;14.16;86.74;98835.55;112017;1252;22530;-55
2023/11/06 08:07:25;;;;;;;2.60;1.20;;;;;;;14.16;87.32;98837.81;110923;1252;22861;-56
2023/11/06 08:09:53;;;;;;;4.90;1.20;;;;;;;14.21;86.42;98840.80;112200;1243;22994;-55
2023/11/06 08:12:20;;;;;;;2.00;1.20;;;;;;;14.27;87.07;98846.71;111755;1242;22564;-57
2023/11/06 08:14:47;;;;;;;1.70;1.20;;;;;;;14.35;86.40;98851.48;112298;1242;22569;-54
2023/11/06 08:17:14;;;;;;;2.90;1.40;;;;;;;14.45;86.37;98861.96;112450;1252;23121;-54
2023/11/06 08:20:03;;;;;;;2.10;0.90;;;;;;;14.57;86.17;98865.04;112454;1241;22376;-54
2023/11/06 08:22:32;;;;;;;2.10;1.60;;;;;;;14.67;84.26;98866.95;111141;1252;22414;-55
2023/11/06 08:24:59;;;;;;;3.10;1.70;;;;;;;14.72;84.62;98870.25;111797;1252;22476;-57
2023/11/06 08:27:25;;;;;;;1.50;1.20;;;;;;;14.80;84.80;98868.16;112459;1242;22267;-59
2023/11/06 08:29:54;;;;;;;1.20;0.90;;;;;;;14.88;83.84;98869.42;112108;1252;22603;-55
2023/11/06 08:32:23;;;;;;;4.50;1.20;;;;;;;14.96;83.52;98876.84;111880;1252;22395;-57
2023/11/06 08:34:59;;;;;;;0.90;0.80;;;;;;;15.02;82.82;98874.67;112224;1248;23430;-56
2023/11/06 08:37:34;;;;;;;1.40;1.10;;;;;;;15.06;82.71;98879.06;111930;1252;23269;-55
2023/11/06 08:40:19;;;;;;;1.80;1.10;;;;;;;15.13;83.77;98876.13;111718;1251;22526;-55
2023/11/06 08:42:50;;;;;;;3.40;1.70;;;;;;;15.20;82.31;98874.82;112098;1252;22538;-54
2023/11/06 08:45:28;;;;;;;3.30;1.00;;;;;;;15.24;81.67;98870.94;111640;1252;23141;-54
2023/11/06 08:48:02;;;;;;;1.00;0.90;;;;;;;15.30;81.51;98869.64;111668;1252;22495;-56
2023/11/06 08:50:29;;;;;;;1.10;1.00;;;;;;;15.34;78.53;98869.45;112324;1252;22400;-56
2023/11/06 08:53:09;;;;;;;2.10;1.00;;;;;;;15.34;78.02;98873.36;112203;1252;22427;-54
2023/11/06 08:55:54;;;;;;;0.60;0.60;;;;;;;15.35;77.58;98882.24;112303;1252;22474;-53
2023/11/06 08:58:36;;;;;;;3.00;1.10;;;;;;;15.39;76.96;98885.27;112323;1252;22245;-54
2023/11/06 09:01:06;;;;;;;;;;;;;;;15.43;77.10;98889.83;111977;1252;23449;-53
2023/11/06 09:03:39;;;;;;;1.40;1.00;;;;;;;15.46;75.79;98891.46;111970;1245;23362;-55
2023/11/06 09:06:14;;;;;;;4.00;0.80;;;;;;;15.43;75.37;98892.63;112044;1252;23224;-55
2023/11/06 09:08:40;;;;;;;4.30;1.00;;;;;;;15.45;76.50;98891.85;111745;1245;22912;-55
2023/11/06 09:11:13;;;;;;;2.20;1.20;;;;;;;15.53;77.63;98897.67;112220;1252;22401;-56
2023/11/06 09:13:40;;;;;;;11.50;5.60;;;;;;;15.65;76.41;98901.94;112528;1240;22363;-56
2023/11/06 09:16:09;;;;;;;0.80;0.50;;;;;;;15.74;73.81;98903.49;112350;1249;22335;-54
2023/11/06 09:18:39;;;;;;;0.60;0.60;;;;;;;15.83;71.56;98906.11;112337;1241;22320;-57
2023/11/06 09:21:12;;;;;;;1.60;0.60;;;;;;;15.90;70.93;98916.00;111456;1240;23293;-56
2023/11/06 09:23:40;;;;;;;2.30;0.70;;;;;;;15.95;70.77;98918.92;112307;1250;23228;-55
2023/11/06 09:26:08;;;;;;;2.00;0.60;;;;;;;15.98;69.92;98920.20;112479;1242;22385;-54
2023/11/06 09:28:39;;;;;;;1.60;0.80;;;;;;;16.01;70.35;98919.39;111995;1252;23526;-54
2023/11/06 09:31:06;;;;;;;0.70;0.60;;;;;;;16.04;69.40;98926.44;112085;1242;23232;-53
2023/11/06 09:33:38;;;;;;;2.50;0.70;;;;;;;16.09;69.19;98926.77;112296;1252;22244;-53
2023/11/06 09:36:09;;;;;;;0.60;0.60;;;;;;;16.12;68.77;98929.94;112107;1238;22594;-55
2023/11/06 09:38:39;;;;;;;2.90;0.60;;;;;;;16.15;68.25;98933.33;111815;1252;22574;-55
2023/11/06 09:41:12;;;;;;;3.80;0.60;;;;;;;16.20;69.07;98939.48;112105;1252;22271;-55
2023/11/06 09:43:45;;;;;;;1.10;0.80;;;;;;;16.31;67.19;98948.30;112230;1252;22438;-55
2023/11/06 09:46:12;;;;;;;1.70;0.60;;;;;;;16.41;65.85;98941.85;112261;1252;23198;-54
2023/11/06 09:48:40;;;;;;;2.70;0.90;;;;;;;16.56;65.69;98940.65;112362;1252;22534;-55
2023/11/06 09:51:14;;;;;;;2.90;0.70;;;;;;;16.70;65.22;98941.08;111886;1252;22440;-54
2023/11/06 09:53:42;;;;;;;0.50;0.50;;;;;;;16.85;64.92;98941.79;112069;1252;22521;-56
2023/11/06 09:56:11;;;;;;;0.80;0.60;;;;;;;17.04;65.17;98947.27;112159;1252;22817;-55
2023/11/06 09:58:38;;;;;;;1.00;0.70;;;;;;;17.34;64.03;98943.85;111279;1252;22646;-55
2023/11/06 10:01:08;;;;;;;0.90;0.60;;;;;;;17.75;62.45;98949.59;112209;1249;22420;-54
2023/11/06 10:03:39;;;;;;;1.30;0.60;;;;;;;18.20;61.04;98950.78;112391;1252;22397;-55
2023/11/06 10:06:07;;;;;;;0.50;0.50;;;;;;;18.65;59.64;98949.48;111888;1252;22407;-53
2023/11/06 10:08:35;;;;;;;0.60;0.60;;;;;;;19.05;59.59;98954.88;112448;1252;23201;-54
2023/11/06 10:11:06;;;;;;;0.60;0.50;;;;;;;19.49;58.21;98960.32;112293;1252;22410;-55
2023/11/06 10:13:53;;;;;;;1.20;0.80;;;;;;;19.87;57.16;98955.34;112511;1252;23220;-54
2023/11/06 10:16:23;;;;;;;4.10;2.00;;;;;;;20.19;54.95;98965.09;112473;1252;22464;-56
2023/11/06 10:18:51;;;;;;;43.50;18.30;;;;;;;20.50;51.07;98964.80;111638;1252;22746;-55
2023/11/06 10:21:28;;;;;;;10.30;4.40;;;;;;;20.62;50.32;98954.17;112310;1252;22213;-54
2023/11/06 10:24:00;;;;;;;1.30;0.90;;;;;;;20.71;49.63;98960.11;112295;1252;22511;-56
2023/11/06 10:26:31;;;;;;;3.90;1.80;;;;;;;20.72;50.37;98964.66;112245;1252;23195;-55
2023/11/06 10:29:14;;;;;;;18.20;8.70;;;;;;;20.76;50.28;98963.75;111507;1252;22555;-57
2023/11/06 10:31:46;;;;;;;1.90;1.30;;;;;;;20.56;49.99;98965.65;111744;1252;23057;-54
2023/11/06 10:34:28;;;;;;;0.80;0.80;;;;;;;20.26;50.72;98969.08;112087;1252;22436;-56
2023/11/06 10:37:09;;;;;;;4.30;1.80;;;;;;;20.07;51.30;98974.32;111995;1252;23145;-56
2023/11/06 10:40:01;;;;;;;7.30;3.80;;;;;;;19.88;51.23;98975.06;111790;1252;25184;-55
2023/11/06 10:42:53;;;;;;;4.90;2.20;;;;;;;19.62;52.31;98978.88;112148;1251;22709;-57
2023/11/06 10:54:07;;;;;;;2.00;1.10;;;;;;;19.97;53.94;98974.38;112299;1252;23123;-58
2023/11/06 10:57:14;;;;;;;1.20;0.80;;;;;;;20.65;51.64;98982.66;112055;1252;22722;-57
2023/11/06 11:00:42;;;;;;;2.50;0.90;;;;;;;21.10;50.14;98973.27;112317;1252;22373;-60
2023/11/06 11:03:17;;;;;;;0.90;0.60;;;;;;;21.25;49.41;98972.64;111744;1252;22642;-62
2023/11/06 11:06:11;;;;;;;0.90;0.70;;;;;;;21.33;49.10;98976.61;111710;1252;23556;-57
2023/11/06 11:09:03;;;;;;;0.90;0.50;;;;;;;21.40;47.22;98973.52;111795;1252;23200;-54
2023/11/06 11:11:45;;;;;;;4.80;0.70;;;;;;;21.37;46.77;98973.67;110796;1252;22271;-55
2023/11/06 11:14:51;;;;;;;0.80;0.60;;;;;;;21.34;46.97;98967.15;111992;1252;22942;-57
2023/11/06 11:17:25;;;;;;;2.40;0.70;;;;;;;21.29;47.18;98975.29;112360;1252;22440;-57
2023/11/06 11:21:04;;;;;;;1.20;0.60;;;;;;;21.30;47.17;98975.58;112194;1251;23281;-57
2023/11/06 11:23:48;;;;;;;1.30;0.80;;;;;;;21.14;47.65;98975.16;111703;1242;24189;-57
2023/11/06 11:27:16;;;;;;;1.10;0.70;;;;;;;20.96;48.29;98983.88;112358;1252;22570;-54
2023/11/06 11:30:12;;;;;;;1.50;0.70;;;;;;;20.89;47.34;98985.98;110954;1252;22405;-56
2023/11/06 11:32:47;;;;;;;0.90;0.60;;;;;;;20.69;46.78;98990.39;112118;1252;23274;-56
2023/11/06 11:35:36;;;;;;;0.50;0.50;;;;;;;20.51;47.43;98994.85;111309;1252;22447;-55
2023/11/06 11:38:30;;;;;;;1.00;0.60;;;;;;;20.43;47.12;98993.56;112184;1252;22266;-56
2023/11/06 11:41:05;;;;;;;0.70;0.70;;;;;;;20.31;47.92;98997.84;111580;1252;22497;-58
2023/11/06 11:43:35;;;;;;;1.30;0.70;;;;;;;20.20;47.49;99003.82;112355;1252;22856;-58
2023/11/06 11:46:02;;;;;;;1.50;1.00;;;;;;;20.12;47.84;99004.65;111908;1252;22516;-60
2023/11/06 11:48:50;;;;;;;0.50;0.50;;;;;;;20.01;46.82;99007.77;110794;1252;22525;-57
2023/11/06 11:51:51;;;;;;;0.50;0.50;;;;;;;19.76;47.17;99008.52;112481;1252;22450;-55
2023/11/06 11:56:50;;;;;;;0.90;0.50;;;;;;;19.65;48.74;99006.14;105811;1302;545818;-58
2023/11/06 11:59:18;;;;;;;1.30;0.80;;;;;;;19.74;48.59;99013.08;108639;1284;22599;-57
2023/11/06 12:01:54;;;;;;;0.90;0.80;;;;;;;19.88;49.03;99015.95;109011;1278;22408;-57
2023/11/06 12:04:31;;;;;;;0.50;0.50;;;;;;;19.90;47.91;99020.77;109496;1279;22225;-59
2023/11/06 12:06:59;;;;;;;0.80;0.60;;;;;;;19.75;47.25;99040.25;108913;1279;23255;-59
2023/11/06 12:09:52;;;;;;;0.80;0.70;;;;;;;19.43;47.11;99036.72;109028;1282;123681;-60
2023/11/06 12:12:21;;;;;;;0.50;0.50;;;;;;;19.12;48.19;99043.76;108828;1276;23011;-57
2023/11/06 12:14:50;;;;;;;1.00;0.50;;;;;;;18.88;49.08;99051.91;108840;1276;22745;-57
2023/11/06 12:17:44;;;;;;;1.80;0.50;;;;;;;18.76;49.98;99055.77;109638;1280;23136;-58
2023/11/06 12:20:17;;;;;;;0.60;0.60;;;;;;;18.72;50.37;99060.55;108463;1276;22469;-57
2023/11/06 12:22:46;;;;;;;2.00;0.70;;;;;;;18.61;50.89;99061.61;109609;1276;22876;-58
2023/11/06 12:25:16;;;;;;;1.20;0.60;;;;;;;18.41;51.54;99066.74;109628;1276;22336;-58
2023/11/06 12:27:45;;;;;;;0.80;0.60;;;;;;;18.21;52.32;99074.29;109970;1272;22435;-58
2023/11/06 12:30:14;;;;;;;0.60;0.60;;;;;;;18.04;53.01;99081.68;109817;1273;23101;-58
2023/11/06 12:32:42;;;;;;;1.20;0.60;;;;;;;17.93;53.56;99091.38;109898;1276;22328;-59
2023/11/06 12:35:19;;;;;;;0.90;0.50;;;;;;;17.90;53.68;99090.27;109772;1277;23524;-59
2023/11/06 12:37:51;;;;;;;2.00;0.80;;;;;;;17.90;54.44;99096.14;109883;1278;22220;-59
2023/11/06 12:40:25;;;;;;;1.00;0.80;;;;;;;17.88;54.48;99098.70;109900;1273;23014;-59
2023/11/06 12:42:55;;;;;;;0.60;0.60;;;;;;;17.85;54.41;99100.44;109951;1275;23076;-59
2023/11/06 12:45:30;;;;;;;0.90;0.80;;;;;;;17.85;54.47;99109.41;109874;1275;22238;-56
2023/11/06 12:47:59;;;;;;;4.00;0.90;;;;;;;17.83;54.20;99105.81;110107;1276;22385;-58
2023/11/06 12:50:28;;;;;;;2.80;0.70;;;;;;;17.78;54.41;99106.38;109987;1274;22207;-59
2023/11/06 12:52:57;;;;;;;0.50;0.50;;;;;;;17.70;54.79;99113.27;110003;1278;23137;-56
2023/11/06 12:55:28;;;;;;;1.00;0.80;;;;;;;17.60;54.05;99119.58;110008;1275;22285;-57
2023/11/06 12:58:09;;;;;;;1.20;0.60;;;;;;;17.45;54.56;99119.21;109941;1272;22578;-59
2023/11/06 13:00:42;;;;;;;2.10;1.50;;;;;;;17.29;55.14;99122.25;110004;1278;23363;-59
2023/11/06 13:03:11;;;;;;;1.30;0.70;;;;;;;17.15;55.31;99132.59;109130;1277;22389;-56
2023/11/06 13:05:39;;;;;;;0.70;0.70;;;;;;;16.99;56.12;99139.27;109916;1275;23289;-57
2023/11/06 13:08:07;;;;;;;1.40;0.80;;;;;;;16.90;56.89;99144.63;109774;1272;23062;-58
2023/11/06 13:10:36;;;;;;;2.00;1.10;;;;;;;16.87;57.46;99146.52;109441;1272;22642;-58
2023/11/06 13:13:05;;;;;;;2.50;0.80;;;;;;;16.79;57.40;99148.44;109770;1272;22419;-59
2023/11/06 13:15:34;;;;;;;2.20;1.50;;;;;;;16.66;57.47;99162.73;109857;1272;22211;-59
2023/11/06 13:18:02;;;;;;;2.10;0.90;;;;;;;16.51;57.39;99166.83;109783;1277;22423;-59
2023/11/06 13:20:36;;;;;;;2.60;1.20;;;;;;;16.39;57.37;99163.66;109816;1277;22208;-58
2023/11/06 13:23:04;;;;;;;0.90;0.50;;;;;;;16.36;57.19;99174.71;109915;1278;22404;-56
2023/11/06 13:25:34;;;;;;;0.40;0.40;;;;;;;16.38;57.19;99176.55;109989;1270;22404;-56
2023/11/06 13:28:05;;;;;;;1.50;0.70;;;;;;;16.28;57.83;99179.61;109840;1274;23460;-59
2023/11/06 13:30:33;;;;;;;1.20;0.60;;;;;;;16.11;58.50;99193.47;109834;1273;22291;-58
2023/11/06 13:33:06;;;;;;;0.60;0.60;;;;;;;15.95;58.96;99198.69;109888;1278;22221;-58
2023/11/06 13:35:35;;;;;;;3.10;0.80;;;;;;;15.81;59.58;99203.65;109927;1272;22978;-57
2023/11/06 13:38:04;;;;;;;1.20;0.70;;;;;;;15.70;60.11;99204.41;110032;1273;22933;-60
2023/11/06 13:40:32;;;;;;;0.80;0.70;;;;;;;15.62;60.34;99208.05;110010;1271;22625;-58
2023/11/06 13:43:01;;;;;;;0.90;0.70;;;;;;;15.56;60.82;99211.57;110013;1272;22491;-57
2023/11/06 13:45:29;;;;;;;3.00;1.70;;;;;;;15.53;61.13;99214.52;110030;1278;22432;-59
2023/11/06 13:48:08;;;;;;;1.60;0.80;;;;;;;15.49;61.58;99217.31;109879;1278;22232;-58
2023/11/06 13:51:25;;;;;;;1.70;0.70;;;;;;;15.44;61.82;99221.50;109892;1278;22336;-59
2023/11/06 13:53:32;;;;;;;0.90;0.70;;;;;;;15.39;62.31;99220.10;109894;1273;22297;-58
2023/11/06 13:56:20;;;;;;;1.10;0.70;;;;;;;15.34;62.52;99224.84;110022;1278;23119;-58
2023/11/06 13:58:53;;;;;;;5.10;1.30;;;;;;;15.28;63.03;99230.88;109184;1278;25450;-59
2023/11/06 14:01:31;;;;;;;0.80;0.60;;;;;;;15.22;63.56;99233.73;108094;1272;24135;-59
2023/11/06 14:04:04;;;;;;;0.80;0.70;;;;;;;15.14;64.06;99238.38;110081;1272;22392;-57
2023/11/06 14:06:33;;;;;;;3.10;0.90;;;;;;;15.08;64.43;99236.00;110089;1273;22997;-59
2023/11/06 14:09:24;;;;;;;1.50;1.00;;;;;;;15.01;65.02;99231.83;108839;1266;22543;-58
2023/11/06 14:11:50;;;;;;;1.00;0.90;;;;;;;14.93;65.72;99241.09;110091;1275;22367;-57
2023/11/06 14:14:18;;;;;;;1.60;1.30;;;;;;;14.86;66.01;99244.83;107982;1278;23916;-59
2023/11/06 14:16:46;;;;;;;1.70;1.10;;;;;;;14.84;66.43;99250.84;108822;1270;22445;-58
2023/11/06 14:19:15;;;;;;;2.30;1.20;;;;;;;14.80;66.68;99245.36;108067;1277;22675;-57
2023/11/06 14:21:42;;;;;;;2.10;1.00;;;;;;;14.75;67.10;99254.14;107538;1278;25224;-58
2023/11/06 14:24:10;;;;;;;1.30;0.90;;;;;;;14.69;66.83;99265.93;109961;1278;22213;-57
2023/11/06 14:26:37;;;;;;;2.80;1.60;;;;;;;14.64;67.09;99261.34;110057;1272;22256;-60
2023/11/06 14:29:05;;;;;;;1.30;0.90;;;;;;;14.58;66.99;99265.05;109492;1278;22584;-60
2023/11/06 14:31:33;;;;;;;2.90;1.00;;;;;;;14.53;67.23;99265.92;109966;1278;22396;-58
2023/11/06 14:34:01;;;;;;;2.80;1.20;;;;;;;14.47;67.89;99270.67;109922;1276;22156;-57
2023/11/06 14:36:28;;;;;;;1.30;1.20;;;;;;;14.41;68.34;99276.30;109972;1273;22984;-58
2023/11/06 14:38:56;;;;;;;1.80;1.10;;;;;;;14.33;68.86;99276.70;109999;1278;22309;-58
2023/11/06 14:41:26;;;;;;;3.70;1.60;;;;;;;14.26;69.46;99281.15;110095;1277;22769;-56
2023/11/06 14:43:54;;;;;;;4.90;1.60;;;;;;;14.19;69.77;99277.70;110025;1278;23332;-58
2023/11/06 14:46:23;;;;;;;3.10;1.40;;;;;;;14.12;70.37;99284.38;110055;1278;23127;-58
2023/11/06 14:48:51;;;;;;;4.60;1.60;;;;;;;14.05;70.76;99285.97;110069;1278;22326;-56
2023/11/06 14:51:31;;;;;;;3.20;1.30;;;;;;;13.98;71.33;99289.01;110043;1278;22376;-58
2023/11/06 14:53:59;;;;;;;6.90;2.60;;;;;;;13.89;71.86;99291.52;110070;1278;22366;-56
2023/11/06 14:56:27;;;;;;;10.30;5.60;;;;;;;13.82;72.36;99295.58;110077;1278;22255;-58
2023/11/06 14:58:55;;;;;;;9.50;5.60;;;;;;;13.74;72.79;99299.52;110080;1278;22311;-56
2023/11/06 15:01:22;;;;;;;5.00;3.30;;;;;;;13.67;73.25;99304.45;109002;1278;22522;-57
2023/11/06 15:03:50;;;;;;;4.50;2.30;;;;;;;13.60;73.55;99305.88;107063;1278;22527;-58
2023/11/06 15:06:18;;;;;;;2.80;1.80;;;;;;;13.52;73.89;99316.75;108214;1278;22528;-56
2023/11/06 15:08:47;;;;;;;4.40;1.70;;;;;;;13.46;74.14;99319.21;107183;1278;22542;-57
2023/11/06 15:11:16;;;;;;;4.70;1.90;;;;;;;13.39;74.53;99321.50;106724;1278;22533;-57
2023/11/06 15:13:44;;;;;;;4.30;1.50;;;;;;;13.33;74.83;99324.13;107180;1278;22531;-57
2023/11/06 15:16:12;;;;;;;5.40;2.80;;;;;;;13.27;75.20;99328.48;107000;1278;22527;-59
2023/11/06 15:18:42;;;;;;;7.80;3.50;;;;;;;13.22;75.52;99334.04;107040;1278;25300;-58
